Time;durP1;ratioP1;P1;durP2;ratioP2;P2;SDS_P1;SDS_P2;PMS_P1;PMS_P2;Temp;Humidity;BMP_temperature;BMP_pressure;BME280_temperature;BME280_humidity;BME280_pressure;Samples;Min_cycle;Max_cycle;Signal;HPM_P1;HPM_P2
2021/01/08 00:01:45;;;;;;;15.05;11.50;;;17.70;99.90;;;;;;5123554;28;20038;-42
2021/01/08 00:04:11;;;;;;;14.00;10.85;;;17.70;99.90;;;;;;5104886;28;20042;-42
2021/01/08 00:06:37;;;;;;;12.35;9.35;;;17.70;99.90;;;;;;5127203;28;20023;-42
2021/01/08 00:09:04;;;;;;;14.77;9.95;;;17.60;99.90;;;;;;5127595;28;20030;-42
2021/01/08 00:11:34;;;;;;;15.85;9.45;;;17.70;99.90;;;;;;5128989;28;20029;-42
2021/01/08 00:14:02;;;;;;;12.85;9.23;;;17.60;99.90;;;;;;5127763;27;20018;-42
2021/01/08 00:16:31;;;;;;;13.75;8.73;;;17.60;99.90;;;;;;5133563;27;20450;-42
2021/01/08 00:18:57;;;;;;;14.55;8.70;;;17.60;99.90;;;;;;5137316;27;20051;-42
2021/01/08 00:21:23;;;;;;;13.60;8.13;;;17.60;99.90;;;;;;5133310;27;20548;-42
2021/01/08 00:23:49;;;;;;;10.45;7.28;;;17.50;99.90;;;;;;5131872;27;20085;-42
2021/01/08 00:26:22;;;;;;;12.57;7.70;;;17.50;99.90;;;;;;5129880;27;20027;-42
2021/01/08 00:28:47;;;;;;;12.15;6.88;;;17.40;99.90;;;;;;5122632;27;20020;-41
2021/01/08 00:31:13;;;;;;;8.70;6.45;;;17.40;99.90;;;;;;5126028;27;20107;-41
2021/01/08 00:33:39;;;;;;;11.82;6.82;;;17.40;99.90;;;;;;5132800;27;20026;-41
2021/01/08 00:36:05;;;;;;;10.35;6.82;;;17.40;99.90;;;;;;5127109;27;20436;-41
2021/01/08 00:38:31;;;;;;;11.00;6.13;;;17.40;99.90;;;;;;5132690;27;20068;-42
2021/01/08 00:40:57;;;;;;;10.70;5.97;;;17.30;99.90;;;;;;5113326;27;20031;-42
2021/01/08 00:43:23;;;;;;;7.60;5.72;;;17.30;99.90;;;;;;5135184;27;20030;-42
2021/01/08 00:45:49;;;;;;;8.27;5.97;;;17.30;99.90;;;;;;5133064;27;20532;-42
2021/01/08 00:48:15;;;;;;;9.18;6.50;;;17.30;99.90;;;;;;5128599;27;20107;-42
2021/01/08 00:50:41;;;;;;;11.50;6.43;;;17.20;99.90;;;;;;5128388;27;20098;-41
2021/01/08 00:53:07;;;;;;;8.73;5.93;;;17.30;99.90;;;;;;5129906;27;20035;-42
2021/01/08 00:55:32;;;;;;;9.48;6.53;;;17.20;99.90;;;;;;5127847;27;20020;-42
2021/01/08 00:57:58;;;;;;;12.13;6.03;;;17.20;99.90;;;;;;5128239;27;20390;-42
2021/01/08 01:00:24;;;;;;;8.07;6.07;;;17.20;99.90;;;;;;5131417;27;20023;-42
2021/01/08 01:02:49;;;;;;;9.55;5.63;;;17.10;99.90;;;;;;5126535;27;20027;-44
2021/01/08 01:05:15;;;;;;;8.98;5.32;;;17.10;99.90;;;;;;5126426;27;20031;-41
2021/01/08 01:07:41;;;;;;;7.30;5.53;;;17.10;99.90;;;;;;5112618;27;20023;-41
2021/01/08 01:10:07;;;;;;;8.18;5.13;;;17.10;99.90;;;;;;5129306;27;20415;-42
2021/01/08 01:12:33;;;;;;;9.15;5.50;;;17.10;99.90;;;;;;5125650;27;20476;-42
2021/01/08 01:14:59;;;;;;;9.00;5.07;;;17.10;99.90;;;;;;5126460;27;20023;-41
2021/01/08 01:17:25;;;;;;;8.20;4.85;;;17.00;99.90;;;;;;5128071;27;20043;-42
2021/01/08 01:19:52;;;;;;;8.02;5.00;;;17.00;99.90;;;;;;5130136;27;20036;-42
2021/01/08 01:22:18;;;;;;;8.82;4.93;;;17.00;99.90;;;;;;5125653;27;20023;-42
2021/01/08 01:24:44;;;;;;;7.38;4.43;;;17.00;99.90;;;;;;5132338;27;20354;-42
2021/01/08 01:27:09;;;;;;;9.05;4.88;;;17.00;99.90;;;;;;5132798;27;20142;-42
2021/01/08 01:29:35;;;;;;;5.78;4.15;;;17.00;99.90;;;;;;5135079;27;20049;-42
2021/01/08 01:32:01;;;;;;;7.07;4.70;;;16.90;99.90;;;;;;5127140;27;20030;-42
2021/01/08 01:34:27;;;;;;;6.25;3.90;;;16.90;99.90;;;;;;5121123;27;20053;-42
2021/01/08 01:36:53;;;;;;;4.90;3.58;;;16.90;99.90;;;;;;5133375;27;20037;-42
2021/01/08 01:39:18;;;;;;;8.20;4.32;;;16.90;99.90;;;;;;5131116;27;20035;-42
2021/01/08 01:41:44;;;;;;;4.38;3.35;;;16.90;99.90;;;;;;5129909;27;20031;-42
2021/01/08 01:44:10;;;;;;;6.45;3.47;;;16.90;99.90;;;;;;5126187;27;20023;-42
2021/01/08 01:46:36;;;;;;;4.07;3.22;;;16.90;99.90;;;;;;5127235;27;20461;-42
2021/01/08 01:49:02;;;;;;;4.70;3.78;;;16.90;99.90;;;;;;5132022;27;20041;-42
2021/01/08 01:51:28;;;;;;;4.72;3.38;;;16.80;99.90;;;;;;5130574;27;20016;-42
2021/01/08 01:53:54;;;;;;;3.75;3.10;;;16.80;99.90;;;;;;5131681;27;20385;-42
2021/01/08 01:56:20;;;;;;;4.03;3.20;;;16.80;99.90;;;;;;5129136;27;20019;-42
2021/01/08 01:58:46;;;;;;;8.32;2.65;;;16.80;99.90;;;;;;5130122;27;20022;-42
2021/01/08 02:01:12;;;;;;;4.03;2.97;;;16.80;99.90;;;;;;5126024;27;20389;-42
2021/01/08 02:03:58;;;;;;;4.05;2.60;;;16.80;99.90;;;;;;5128446;27;20024;-42
2021/01/08 02:06:39;;;;;;;4.03;2.85;;;16.80;99.90;;;;;;5124413;27;20055;-42
2021/01/08 02:09:09;;;;;;;4.03;2.65;;;16.80;99.90;;;;;;5127269;27;20072;-42
2021/01/08 02:11:36;;;;;;;4.60;3.00;;;16.80;99.90;;;;;;5127295;27;20043;-43
2021/01/08 02:14:09;;;;;;;3.50;2.85;;;16.80;99.90;;;;;;5131292;27;20016;-42
2021/01/08 02:16:36;;;;;;;4.07;2.45;;;16.70;99.90;;;;;;5130925;27;20033;-42
2021/01/08 02:19:07;;;;;;;2.72;2.03;;;16.70;99.90;;;;;;5130012;27;20551;-42
2021/01/08 02:21:38;;;;;;;3.53;2.20;;;16.70;99.90;;;;;;5125515;27;20059;-42
2021/01/08 02:24:28;;;;;;;5.30;2.58;;;16.70;99.90;;;;;;5102410;28;20424;-42
2021/01/08 02:26:54;;;;;;;3.13;2.08;;;16.70;99.90;;;;;;5133526;27;20058;-42
2021/01/08 02:29:21;;;;;;;4.40;2.63;;;16.70;99.90;;;;;;5130709;27;20023;-42
2021/01/08 02:31:47;;;;;;;2.50;2.30;;;16.70;99.90;;;;;;5132549;27;20025;-42
2021/01/08 02:34:13;;;;;;;2.35;1.95;;;16.70;99.90;;;;;;5128010;27;20415;-42
2021/01/08 02:36:42;;;;;;;3.15;2.15;;;16.70;99.90;;;;;;5129752;27;20369;-42
2021/01/08 02:39:10;;;;;;;2.85;1.90;;;16.70;99.90;;;;;;5126989;27;20052;-43
2021/01/08 02:41:37;;;;;;;1.70;1.60;;;16.70;99.90;;;;;;5129323;27;20026;-43
2021/01/08 02:44:06;;;;;;;3.17;1.90;;;16.70;99.90;;;;;;5130974;27;20034;-42
2021/01/08 02:46:32;;;;;;;2.10;1.60;;;16.70;99.90;;;;;;5122596;27;20027;-42
2021/01/08 02:48:58;;;;;;;2.70;2.00;;;16.70;99.90;;;;;;5132849;27;20023;-43
2021/01/08 02:51:24;;;;;;;2.33;1.42;;;16.70;99.90;;;;;;5123626;27;20030;-43
2021/01/08 02:53:51;;;;;;;1.83;1.58;;;16.70;99.90;;;;;;5130443;27;20106;-43
2021/01/08 02:56:33;;;;;;;2.17;1.53;;;16.70;99.90;;;;;;5123509;27;20078;-43
2021/01/08 02:59:00;;;;;;;1.77;1.30;;;16.70;99.90;;;;;;5125372;27;20043;-43
2021/01/08 03:01:28;;;;;;;2.05;1.48;;;16.70;99.90;;;;;;5130587;27;20488;-42
2021/01/08 03:03:55;;;;;;;1.83;1.27;;;16.60;99.90;;;;;;5128206;27;20038;-42
2021/01/08 03:06:21;;;;;;;1.50;1.30;;;16.60;99.90;;;;;;5130373;27;20015;-42
2021/01/08 03:08:48;;;;;;;2.33;1.25;;;16.60;99.90;;;;;;5127476;27;20255;-43
2021/01/08 03:11:14;;;;;;;1.60;1.50;;;16.60;99.90;;;;;;5127467;27;20035;-43
2021/01/08 03:13:41;;;;;;;3.35;1.63;;;16.60;99.90;;;;;;5130929;27;20023;-42
2021/01/08 03:16:07;;;;;;;2.43;1.93;;;16.60;99.90;;;;;;5131635;27;20029;-43
2021/01/08 03:18:34;;;;;;;1.92;1.02;;;16.60;99.90;;;;;;5129315;27;20675;-42
2021/01/08 03:20:59;;;;;;;1.42;1.33;;;16.60;99.90;;;;;;5125912;27;20469;-42
2021/01/08 03:23:25;;;;;;;1.27;1.17;;;16.60;99.90;;;;;;5132090;27;20094;-42
2021/01/08 03:25:51;;;;;;;2.10;1.45;;;16.60;99.90;;;;;;5129727;27;20072;-43
2021/01/08 03:28:17;;;;;;;1.70;1.20;;;16.60;99.90;;;;;;5127602;27;20031;-43
2021/01/08 03:30:43;;;;;;;2.47;0.95;;;16.50;99.90;;;;;;5128882;27;20024;-43
2021/01/08 03:33:09;;;;;;;1.63;1.23;;;16.60;99.90;;;;;;5124417;27;20477;-42
2021/01/08 03:35:35;;;;;;;1.40;0.98;;;16.60;99.90;;;;;;5125250;27;20034;-43
2021/01/08 03:38:01;;;;;;;1.13;0.90;;;16.60;99.90;;;;;;5130474;27;20023;-42
2021/01/08 03:40:27;;;;;;;1.30;1.20;;;16.50;99.90;;;;;;5124945;27;20030;-42
2021/01/08 03:42:52;;;;;;;1.55;1.20;;;16.50;99.90;;;;;;5124332;28;20038;-43
2021/01/08 03:45:18;;;;;;;3.15;1.20;;;16.50;99.90;;;;;;5126256;28;20034;-43
2021/01/08 03:47:44;;;;;;;1.63;0.60;;;16.50;99.90;;;;;;5126406;28;20126;-37
2021/01/08 03:50:10;;;;;;;1.58;0.80;;;16.50;99.90;;;;;;5131431;27;20035;-38
2021/01/08 03:52:36;;;;;;;1.23;0.90;;;16.50;99.90;;;;;;5130246;27;20027;-38
2021/01/08 03:55:02;;;;;;;1.00;0.80;;;16.50;99.90;;;;;;5131329;27;20026;-37
2021/01/08 03:57:28;;;;;;;1.05;0.88;;;16.50;99.90;;;;;;5127563;27;20499;-37
2021/01/08 03:59:53;;;;;;;0.80;0.80;;;16.50;99.90;;;;;;5125126;27;20031;-37
2021/01/08 04:02:19;;;;;;;0.90;0.80;;;16.50;99.90;;;;;;5132314;27;20392;-38
2021/01/08 04:04:45;;;;;;;2.40;1.30;;;16.50;99.90;;;;;;5111829;27;20435;-38
2021/01/08 04:07:11;;;;;;;1.67;1.02;;;16.50;99.90;;;;;;5128386;27;20032;-38
2021/01/08 04:09:36;;;;;;;1.33;0.90;;;16.50;99.90;;;;;;5131192;27;20067;-38
2021/01/08 04:12:02;;;;;;;1.60;1.00;;;16.50;99.90;;;;;;5132558;27;20102;-38
2021/01/08 04:14:28;;;;;;;1.15;0.88;;;16.50;99.90;;;;;;5132793;27;20487;-37
2021/01/08 04:16:54;;;;;;;1.20;0.85;;;16.50;99.90;;;;;;5129711;27;20039;-38
2021/01/08 04:19:20;;;;;;;1.13;0.90;;;16.50;99.90;;;;;;5125547;27;20050;-37
2021/01/08 04:21:46;;;;;;;0.82;0.80;;;16.50;99.90;;;;;;5127329;27;20523;-38
2021/01/08 04:24:13;;;;;;;1.00;0.90;;;16.40;99.90;;;;;;5126854;27;20058;-37
2021/01/08 04:26:40;;;;;;;2.17;0.85;;;16.40;99.90;;;;;;5131506;27;20461;-37
2021/01/08 04:29:06;;;;;;;1.13;0.90;;;16.40;99.90;;;;;;5134320;27;20027;-38
2021/01/08 04:31:32;;;;;;;2.10;1.00;;;16.40;99.90;;;;;;5132617;27;20072;-38
2021/01/08 04:33:57;;;;;;;1.20;1.00;;;16.40;99.90;;;;;;5129474;27;20031;-37
2021/01/08 04:36:23;;;;;;;0.90;0.60;;;16.40;99.90;;;;;;5131617;27;20027;-37
2021/01/08 04:38:49;;;;;;;0.90;0.60;;;16.40;99.90;;;;;;5126068;27;20449;-38
2021/01/08 04:41:16;;;;;;;1.52;0.80;;;16.40;99.90;;;;;;5129200;27;20023;-38
2021/01/08 04:43:43;;;;;;;0.70;0.60;;;16.40;99.90;;;;;;5130352;27;20102;-38
2021/01/08 04:46:28;;;;;;;2.45;1.05;;;16.40;99.90;;;;;;5131227;27;20035;-38
2021/01/08 04:48:58;;;;;;;1.33;0.95;;;16.40;99.90;;;;;;5126091;27;20076;-37
2021/01/08 04:51:24;;;;;;;1.45;0.93;;;16.40;99.90;;;;;;5128230;27;20046;-38
2021/01/08 04:53:51;;;;;;;0.60;0.60;;;16.40;99.90;;;;;;5134162;27;20026;-37
2021/01/08 04:56:20;;;;;;;1.30;0.55;;;16.40;99.90;;;;;;5132953;27;20019;-38
2021/01/08 04:58:47;;;;;;;1.10;0.75;;;16.40;99.90;;;;;;5134156;27;20019;-37
2021/01/08 05:01:14;;;;;;;2.25;0.93;;;16.40;99.90;;;;;;5131949;27;20521;-37
2021/01/08 05:03:41;;;;;;;1.65;1.02;;;16.40;99.90;;;;;;5127363;27;20058;-37
2021/01/08 05:06:07;;;;;;;2.17;0.77;;;16.40;99.90;;;;;;5133325;27;20429;-37
2021/01/08 05:08:32;;;;;;;2.42;0.82;;;16.40;99.90;;;;;;5125758;27;20098;-38
2021/01/08 05:11:18;;;;;;;0.85;0.60;;;16.30;99.90;;;;;;5127367;27;20023;-37
2021/01/08 05:13:49;;;;;;;1.08;0.82;;;16.30;99.90;;;;;;5131246;27;20159;-38
2021/01/08 05:16:15;;;;;;;0.70;0.63;;;16.30;99.90;;;;;;5136165;27;20022;-38
2021/01/08 05:18:42;;;;;;;1.77;1.15;;;16.40;99.90;;;;;;5128410;27;20048;-38
2021/01/08 05:21:08;;;;;;;1.23;0.70;;;16.30;99.90;;;;;;5127272;27;20031;-37
2021/01/08 05:23:35;;;;;;;2.53;1.02;;;16.40;99.90;;;;;;5130462;27;20511;-38
2021/01/08 05:26:03;;;;;;;0.93;0.85;;;16.40;99.90;;;;;;5126038;27;20038;-38
2021/01/08 05:28:29;;;;;;;1.13;0.90;;;16.30;99.90;;;;;;5133671;27;20023;-37
2021/01/08 05:30:58;;;;;;;1.55;1.25;;;16.30;99.90;;;;;;5134593;27;20023;-38
2021/01/08 05:33:24;;;;;;;1.38;1.10;;;16.30;99.90;;;;;;5127625;27;20501;-40
2021/01/08 05:35:51;;;;;;;1.10;0.93;;;16.30;99.90;;;;;;5127868;27;20019;-41
2021/01/08 05:38:21;;;;;;;1.20;1.10;;;16.30;99.90;;;;;;5130420;27;20068;-43
2021/01/08 05:40:47;;;;;;;2.03;1.08;;;16.30;99.90;;;;;;5128843;27;20026;-42
2021/01/08 05:43:13;;;;;;;1.77;1.00;;;16.20;99.90;;;;;;5125065;27;20039;-41
2021/01/08 05:45:39;;;;;;;5.15;1.52;;;16.20;99.90;;;;;;5119850;27;20469;-41
2021/01/08 05:48:07;;;;;;;9.52;1.90;;;16.20;99.90;;;;;;5132031;27;20030;-41
2021/01/08 05:50:34;;;;;;;12.40;2.00;;;16.20;99.90;;;;;;5126960;27;20030;-40
2021/01/08 05:53:08;;;;;;;7.75;1.50;;;16.20;99.90;;;;;;5124384;27;20098;-41
2021/01/08 05:55:35;;;;;;;8.40;2.00;;;16.20;99.90;;;;;;5108254;27;20028;-40
2021/01/08 05:58:18;;;;;;;8.18;2.67;;;16.10;99.90;;;;;;5133258;27;20064;-41
2021/01/08 06:00:53;;;;;;;10.25;2.47;;;16.10;99.90;;;;;;5132081;27;20031;-40
2021/01/08 06:03:20;;;;;;;14.70;2.65;;;16.10;99.90;;;;;;5128755;27;20106;-40
2021/01/08 06:05:46;;;;;;;9.32;2.00;;;16.10;99.90;;;;;;5106557;27;20023;-40
2021/01/08 06:08:15;;;;;;;11.20;2.20;;;16.10;99.90;;;;;;5125366;27;20042;-40
2021/01/08 06:10:44;;;;;;;9.93;1.90;;;16.10;99.90;;;;;;5122428;27;20028;-40
2021/01/08 06:13:12;;;;;;;18.23;2.75;;;16.10;99.90;;;;;;5128117;27;20460;-40
2021/01/08 06:15:38;;;;;;;17.20;3.88;;;16.10;99.90;;;;;;5115497;27;20115;-41
2021/01/08 06:18:05;;;;;;;20.02;2.80;;;16.10;99.90;;;;;;5129778;27;20509;-41
2021/01/08 06:20:32;;;;;;;19.07;2.30;;;16.10;99.90;;;;;;5109814;28;20027;-40
2021/01/08 06:22:58;;;;;;;13.13;2.00;;;16.10;99.90;;;;;;5129961;27;20023;-42
2021/01/08 06:25:26;;;;;;;16.92;2.97;;;16.10;99.90;;;;;;5124951;27;20381;-43
2021/01/08 06:27:57;;;;;;;15.25;2.85;;;16.10;99.90;;;;;;5131849;27;20786;-42
2021/01/08 06:30:26;;;;;;;14.48;2.38;;;16.10;99.90;;;;;;5130885;27;20330;-41
2021/01/08 06:33:04;;;;;;;16.20;2.63;;;16.10;99.90;;;;;;5126683;27;20399;-41
2021/01/08 06:35:33;;;;;;;18.38;2.65;;;16.10;99.90;;;;;;5106885;27;20055;-41
2021/01/08 06:37:59;;;;;;;20.05;3.90;;;16.10;99.90;;;;;;5132719;27;20054;-41
2021/01/08 06:40:43;;;;;;;20.17;5.18;;;16.10;99.90;;;;;;5132747;27;20103;-39
2021/01/08 06:43:23;;;;;;;25.30;7.32;;;16.10;99.90;;;;;;5124059;27;20051;-39
2021/01/08 06:45:53;;;;;;;21.52;9.43;;;16.10;99.90;;;;;;5133189;27;20023;-39
2021/01/08 06:48:24;;;;;;;26.05;10.50;;;16.10;99.90;;;;;;5132026;27;20072;-38
2021/01/08 06:50:54;;;;;;;26.35;9.55;;;16.10;99.90;;;;;;5131390;27;20053;-39
2021/01/08 06:53:25;;;;;;;18.60;9.38;;;16.10;99.90;;;;;;5125016;27;20050;-39
2021/01/08 06:55:54;;;;;;;53.40;34.00;;;16.10;99.90;;;;;;5129124;27;20056;-39
2021/01/08 06:58:20;;;;;;;95.03;55.63;;;16.10;99.90;;;;;;5131051;27;20026;-39
2021/01/08 07:00:51;;;;;;;107.05;73.97;;;16.10;99.90;;;;;;5132813;27;20058;-39
2021/01/08 07:03:21;;;;;;;102.28;71.97;;;16.10;99.90;;;;;;5130153;27;20025;-39
2021/01/08 07:05:56;;;;;;;101.65;75.47;;;16.10;99.90;;;;;;5121476;27;20035;-39
2021/01/08 07:08:26;;;;;;;97.80;71.20;;;16.10;99.90;;;;;;5111738;27;20054;-39
2021/01/08 07:10:54;;;;;;;95.28;68.22;;;16.10;99.90;;;;;;5128149;27;20123;-39
2021/01/08 07:13:30;;;;;;;91.82;63.63;;;16.20;99.90;;;;;;5097785;27;20030;-39
2021/01/08 07:15:57;;;;;;;76.50;58.13;;;16.20;99.90;;;;;;5132116;27;20019;-40
2021/01/08 07:18:34;;;;;;;73.40;48.42;;;16.20;99.90;;;;;;5126542;27;20050;-39
2021/01/08 07:21:00;;;;;;;123.22;93.70;;;16.20;99.90;;;;;;5125426;27;20377;-39
2021/01/08 07:23:27;;;;;;;186.00;147.05;;;16.30;99.90;;;;;;5126714;27;20023;-39
2021/01/08 07:25:54;;;;;;;216.77;170.98;;;16.20;99.90;;;;;;5128077;27;20016;-39
2021/01/08 07:28:21;;;;;;;221.90;174.02;;;16.20;99.90;;;;;;5132829;27;20027;-39
2021/01/08 07:31:07;;;;;;;219.93;172.13;;;16.20;99.90;;;;;;5128993;27;20027;-40
2021/01/08 07:33:33;;;;;;;191.52;153.25;;;16.20;99.90;;;;;;5127034;27;20475;-40
2021/01/08 07:36:18;;;;;;;198.15;155.18;;;16.30;99.90;;;;;;5132810;27;20098;-40
2021/01/08 07:38:44;;;;;;;183.13;144.95;;;16.30;99.90;;;;;;5130496;27;20425;-40
2021/01/08 07:41:10;;;;;;;177.02;137.98;;;16.30;99.90;;;;;;5128465;27;20106;-40
2021/01/08 07:43:36;;;;;;;166.20;130.77;;;16.40;99.90;;;;;;5131188;27;20036;-40
2021/01/08 07:46:04;;;;;;;129.38;93.85;;;16.40;99.90;;;;;;5128348;27;20038;-40
2021/01/08 07:48:35;;;;;;;144.40;114.85;;;16.40;99.90;;;;;;5126958;28;20031;-40
2021/01/08 07:51:03;;;;;;;142.98;106.85;;;16.40;99.90;;;;;;5130950;28;20028;-40
2021/01/08 07:53:55;;;;;;;137.68;104.85;;;16.40;99.90;;;;;;5112501;28;20019;-40
2021/01/08 07:56:22;;;;;;;136.23;106.03;;;16.40;99.90;;;;;;5124222;28;20039;-39
2021/01/08 07:59:07;;;;;;;126.70;92.97;;;16.40;99.90;;;;;;5131530;28;20098;-39
2021/01/08 08:01:36;;;;;;;116.72;85.70;;;16.50;99.90;;;;;;5129520;28;20031;-39
2021/01/08 08:04:04;;;;;;;105.75;79.38;;;16.50;99.90;;;;;;5129321;28;20047;-39
2021/01/08 08:06:32;;;;;;;101.13;73.57;;;16.40;99.90;;;;;;5131221;28;20068;-40
2021/01/08 08:09:02;;;;;;;;;;;16.50;99.90;;;;;;5124877;28;20117;-40
2021/01/08 08:11:34;;;;;;;137.18;103.80;;;16.50;99.90;;;;;;5119455;28;20014;-39
2021/01/08 08:14:01;;;;;;;137.60;96.25;;;16.50;99.90;;;;;;5125979;28;20015;-40
2021/01/08 08:16:34;;;;;;;136.55;102.90;;;16.50;99.90;;;;;;5124010;28;20023;-40
2021/01/08 08:19:01;;;;;;;132.25;100.28;;;16.50;99.90;;;;;;5125866;28;20043;-39
2021/01/08 08:21:26;;;;;;;132.02;97.90;;;16.50;99.90;;;;;;5119237;28;20104;-40
2021/01/08 08:23:56;;;;;;;125.40;95.35;;;16.50;99.90;;;;;;5127429;28;20027;-39
2021/01/08 08:26:23;;;;;;;132.25;98.07;;;16.60;99.90;;;;;;5127918;28;20027;-39
2021/01/08 08:29:14;;;;;;;133.23;98.33;;;16.60;99.90;;;;;;5125098;28;20031;-40
2021/01/08 08:31:45;;;;;;;126.25;94.05;;;16.60;99.90;;;;;;5106081;28;20023;-39
2021/01/08 08:34:13;;;;;;;125.95;92.35;;;16.60;99.90;;;;;;5116927;28;20032;-39
2021/01/08 08:36:39;;;;;;;117.35;86.00;;;16.60;99.90;;;;;;5133025;27;20022;-42
2021/01/08 08:39:09;;;;;;;93.32;69.35;;;16.70;99.90;;;;;;5130139;27;20473;-42
2021/01/08 08:41:37;;;;;;;128.68;93.95;;;16.70;99.90;;;;;;5126500;27;20081;-43
2021/01/08 08:44:09;;;;;;;144.48;106.30;;;16.70;99.90;;;;;;5127336;27;20031;-43
2021/01/08 08:46:42;;;;;;;140.23;96.53;;;16.70;99.90;;;;;;5129473;27;20027;-43
2021/01/08 08:49:09;;;;;;;133.07;94.43;;;16.70;99.90;;;;;;5126351;27;20019;-42
2021/01/08 08:51:35;;;;;;;126.32;91.25;;;16.70;99.90;;;;;;5128205;27;20076;-42
2021/01/08 08:54:01;;;;;;;120.70;90.35;;;16.80;99.90;;;;;;5127822;27;20419;-42
2021/01/08 08:56:26;;;;;;;136.23;98.10;;;16.90;99.90;;;;;;5112943;27;20042;-42
2021/01/08 08:58:52;;;;;;;131.88;95.60;;;16.90;99.90;;;;;;5130238;27;20081;-42
2021/01/08 09:01:18;;;;;;;135.77;96.93;;;17.00;99.90;;;;;;5132720;27;20094;-41
2021/01/08 09:03:44;;;;;;;137.85;102.90;;;17.10;99.90;;;;;;5117287;27;20026;-42
2021/01/08 09:06:10;;;;;;;110.35;84.55;;;17.20;99.90;;;;;;5132386;27;20028;-37
2021/01/08 09:08:39;;;;;;;101.72;77.25;;;17.30;99.90;;;;;;5133590;27;20023;-37
2021/01/08 09:11:36;;;;;;;96.63;69.40;;;17.40;99.90;;;;;;5132362;27;20029;-38
2021/01/08 09:14:12;;;;;;;90.00;65.43;;;17.40;99.90;;;;;;5130033;27;20019;-38
2021/01/08 09:16:46;;;;;;;84.00;54.53;;;17.50;99.90;;;;;;5131104;27;20264;-39
2021/01/08 09:19:44;;;;;;;63.50;44.17;;;17.50;99.90;;;;;;5088608;28;20063;-38
2021/01/08 09:22:11;;;;;;;;;;;17.60;99.90;;;;;;5086436;28;20405;-38
2021/01/08 09:24:40;;;;;;;65.03;41.25;;;17.60;99.90;;;;;;5088932;28;19923;-43
2021/01/08 09:27:10;;;;;;;54.13;38.05;;;17.60;99.90;;;;;;5092089;28;20024;-38
2021/01/08 09:29:36;;;;;;;55.08;36.88;;;17.60;99.90;;;;;;5091558;28;20024;-38
2021/01/08 09:32:04;;;;;;;59.85;40.00;;;17.60;99.90;;;;;;5102152;27;20028;-38
2021/01/08 09:34:31;;;;;;;59.53;36.72;;;17.60;99.90;;;;;;5084880;28;20505;-38
2021/01/08 09:36:59;;;;;;;54.78;32.60;;;17.60;99.90;;;;;;5091722;28;20024;-38
2021/01/08 09:39:28;;;;;;;;;;;17.60;99.90;;;;;;5089520;28;20174;-39
2021/01/08 09:42:01;;;;;;;46.88;23.50;;;17.60;99.90;;;;;;5091408;28;19999;-38
2021/01/08 09:44:34;;;;;;;42.35;21.38;;;17.60;99.90;;;;;;5087372;28;20111;-38
2021/01/08 09:47:01;;;;;;;36.92;15.02;;;17.50;99.90;;;;;;5080202;28;20042;-38
2021/01/08 09:49:38;;;;;;;41.10;16.52;;;17.50;99.90;;;;;;5082526;28;20031;-38
2021/01/08 09:52:05;;;;;;;35.35;18.23;;;17.40;99.90;;;;;;5089366;28;20027;-37
2021/01/08 09:54:51;;;;;;;38.95;17.90;;;17.40;99.90;;;;;;5086091;28;20028;-37
2021/01/08 09:57:27;;;;;;;38.92;15.18;;;17.30;99.90;;;;;;5092848;28;20038;-37
2021/01/08 09:59:58;;;;;;;49.08;29.90;;;17.30;99.90;;;;;;5082043;28;20036;-39
2021/01/08 10:02:37;;;;;;;55.83;33.10;;;17.20;99.90;;;;;;5082289;28;20040;-43
2021/01/08 10:05:06;;;;;;;56.80;36.00;;;17.20;99.90;;;;;;5085608;28;20073;-43
2021/01/08 10:07:45;;;;;;;56.17;35.60;;;17.20;99.90;;;;;;5084762;28;20108;-41
2021/01/08 10:10:33;;;;;;;48.65;29.90;;;17.10;99.90;;;;;;5082535;28;20039;-43
2021/01/08 10:13:00;;;;;;;44.83;25.15;;;17.20;99.90;;;;;;5087632;28;20037;-43
2021/01/08 10:15:40;;;;;;;57.92;30.13;;;17.20;99.90;;;;;;5092913;28;20038;-44
2021/01/08 10:18:12;;;;;;;73.57;42.83;;;17.10;99.90;;;;;;5107327;27;20050;-41
2021/01/08 10:20:44;;;;;;;53.25;29.08;;;17.10;99.90;;;;;;5128752;27;20031;-42
2021/01/08 10:23:11;;;;;;;53.13;29.55;;;17.00;99.90;;;;;;5130357;27;20098;-41
2021/01/08 10:25:37;;;;;;;70.18;39.78;;;17.10;99.90;;;;;;5128725;27;20503;-37
2021/01/08 10:28:11;;;;;;;71.55;44.03;;;17.10;99.90;;;;;;5126377;27;20031;-37
2021/01/08 10:30:38;;;;;;;67.10;41.17;;;17.10;99.90;;;;;;5132055;27;20026;-37
2021/01/08 10:33:04;;;;;;;68.30;39.05;;;17.10;99.90;;;;;;5124859;27;20023;-39
2021/01/08 10:35:30;;;;;;;58.70;34.97;;;17.10;99.90;;;;;;5124966;27;20023;-37
2021/01/08 10:37:55;;;;;;;61.42;33.22;;;17.20;99.90;;;;;;5124558;27;20456;-37
2021/01/08 10:40:21;;;;;;;46.85;24.92;;;17.20;99.90;;;;;;5125145;27;20477;-38
2021/01/08 10:42:47;;;;;;;48.22;26.17;;;17.20;99.90;;;;;;5125870;27;20023;-37
2021/01/08 10:45:13;;;;;;;49.13;29.23;;;17.20;99.90;;;;;;5117722;27;20027;-37
2021/01/08 10:47:39;;;;;;;53.40;33.97;;;17.20;99.90;;;;;;5106223;27;20024;-38
2021/01/08 10:50:06;;;;;;;62.50;37.80;;;17.30;99.90;;;;;;5124112;27;20035;-37
2021/01/08 10:52:31;;;;;;;64.10;34.78;;;17.30;99.90;;;;;;5124321;27;20027;-37
2021/01/08 10:54:57;;;;;;;69.82;40.33;;;17.30;99.90;;;;;;5110279;27;20068;-38
2021/01/08 10:57:23;;;;;;;68.47;42.75;;;17.20;99.90;;;;;;5125764;27;20019;-42
2021/01/08 10:59:49;;;;;;;73.55;38.72;;;17.30;99.90;;;;;;5131129;27;20038;-42
2021/01/08 11:02:15;;;;;;;60.00;35.17;;;17.30;99.90;;;;;;5131950;27;20019;-42
2021/01/08 11:04:44;;;;;;;53.55;29.77;;;17.30;99.90;;;;;;5112301;27;20488;-38
2021/01/08 11:07:10;;;;;;;66.72;41.55;;;17.40;99.90;;;;;;5115075;27;20023;-38
2021/01/08 11:09:37;;;;;;;85.80;54.55;;;17.40;99.90;;;;;;5131174;27;20075;-38
2021/01/08 11:12:03;;;;;;;87.63;54.45;;;17.40;99.90;;;;;;5129363;27;20023;-38
2021/01/08 11:14:29;;;;;;;85.03;51.03;;;17.40;99.90;;;;;;5125688;27;20441;-38
2021/01/08 11:16:55;;;;;;;80.30;48.72;;;17.40;99.90;;;;;;5133540;27;20015;-41
2021/01/08 11:19:21;;;;;;;67.03;41.58;;;17.50;99.90;;;;;;5129885;27;20019;-42
2021/01/08 11:21:50;;;;;;;61.72;40.58;;;17.60;99.90;;;;;;5128821;27;20096;-42
2021/01/08 11:24:16;;;;;;;59.97;33.67;;;17.60;99.90;;;;;;5126153;27;20418;-42
2021/01/08 11:26:42;;;;;;;59.22;30.27;;;17.60;99.90;;;;;;5130499;27;20019;-42
2021/01/08 11:29:08;;;;;;;50.08;28.92;;;17.60;99.90;;;;;;5126631;27;20801;-37
2021/01/08 11:31:35;;;;;;;57.83;31.17;;;17.60;99.90;;;;;;5128522;27;20421;-39
2021/01/08 11:34:02;;;;;;;60.55;38.63;;;17.60;99.90;;;;;;5131347;27;20024;-39
2021/01/08 11:36:28;;;;;;;63.15;36.55;;;17.70;99.90;;;;;;5133340;27;20027;-39
2021/01/08 11:38:55;;;;;;;58.08;30.67;;;17.70;99.90;;;;;;5109450;27;20024;-41
2021/01/08 11:41:21;;;;;;;54.25;28.50;;;17.70;99.90;;;;;;5130898;27;20414;-38
2021/01/08 11:43:48;;;;;;;51.47;28.90;;;17.70;99.90;;;;;;5112607;27;20027;-38
2021/01/08 11:46:18;;;;;;;56.35;29.15;;;17.80;99.90;;;;;;5113856;28;20484;-39
2021/01/08 11:48:44;;;;;;;49.90;26.25;;;17.70;99.90;;;;;;5123671;28;20032;-38
2021/01/08 11:51:14;;;;;;;47.50;21.33;;;17.70;99.90;;;;;;5120808;28;20072;-38
2021/01/08 11:53:44;;;;;;;38.40;17.77;;;17.60;99.90;;;;;;5125717;28;20031;-39
2021/01/08 11:56:11;;;;;;;37.67;15.65;;;17.60;99.90;;;;;;5106736;28;20161;-40
2021/01/08 11:58:41;;;;;;;38.47;14.35;;;17.60;99.90;;;;;;5107874;28;20753;-41
2021/01/08 12:01:08;;;;;;;33.42;13.85;;;17.50;99.90;;;;;;5122770;28;20059;-40
2021/01/08 12:03:36;;;;;;;45.00;15.07;;;17.50;99.90;;;;;;5122623;28;20034;-40
2021/01/08 12:06:02;;;;;;;38.03;11.35;;;17.60;99.90;;;;;;5129132;28;20034;-40
2021/01/08 12:08:28;;;;;;;35.33;13.90;;;17.50;99.90;;;;;;5124378;28;20096;-40
2021/01/08 12:10:54;;;;;;;36.17;12.55;;;17.50;99.90;;;;;;5132980;27;20759;-40
2021/01/08 12:13:20;;;;;;;44.70;18.95;;;17.50;99.90;;;;;;5135459;27;20034;-40
2021/01/08 12:15:48;;;;;;;57.00;30.95;;;17.50;99.90;;;;;;5133078;27;20019;-40
2021/01/08 12:18:14;;;;;;;62.05;36.13;;;17.50;99.90;;;;;;5135021;27;20069;-40
2021/01/08 12:20:40;;;;;;;56.72;35.05;;;17.60;99.90;;;;;;5117214;27;20046;-41
2021/01/08 12:23:06;;;;;;;52.42;31.70;;;17.60;99.90;;;;;;5131206;27;20027;-41
2021/01/08 12:25:39;;;;;;;52.33;30.05;;;17.60;99.90;;;;;;5131477;27;20554;-40
2021/01/08 12:28:09;;;;;;;43.50;27.95;;;17.70;99.90;;;;;;5133220;27;20039;-40
2021/01/08 12:30:36;;;;;;;46.22;25.38;;;17.70;99.90;;;;;;5135464;27;20027;-40
2021/01/08 12:33:03;;;;;;;41.30;25.33;;;17.70;99.90;;;;;;5135420;27;20488;-39
2021/01/08 12:35:30;;;;;;;40.70;23.85;;;17.70;99.90;;;;;;5135013;27;20027;-40
2021/01/08 12:37:57;;;;;;;41.70;20.65;;;17.80;99.90;;;;;;5132819;27;20068;-39
2021/01/08 12:40:23;;;;;;;36.58;20.30;;;17.90;99.90;;;;;;5129859;27;20561;-39
2021/01/08 12:42:52;;;;;;;33.33;18.60;;;17.90;99.90;;;;;;5131389;27;20034;-39